Dundee City, United Kingdom

11:36 PM BST on July 23, 2016 (GMT +0100)
West End | | Change Station

Elev 187 ft 56.46 °N, 3.02 °W | Updated 16 seconds ago

Mostly Cloudy
Mostly Cloudy
62.0 °F
Feels Like 62.0 °F
N
0.0
Wind Variable Wind from North
Gusts 2.0 mph

Today
High -- | Low -- °F
--% Chance of Precip.
Yesterday
High -- | Low -- °F
Precip. -- in
Pressure 30.04 in
Visibility 6.2 miles
Clouds Mostly Cloudy 3300 ft
Dew Point 59 °F
Humidity 90%
Rainfall 0.00 in
Snow Depth Not available.
4:57 AM 9:38 PM
Waning Gibbous, 82% visible
METAR EGPH 232220Z AUTO 20004KT 9999 BKN033 16/13 Q1017
Pressure 30.04 in
Visibility 6.2 miles
Clouds Mostly Cloudy 3300 ft
Dew Point 59 °F
Humidity 90%
Rainfall 0.00 in
Snow Depth Not available.
4:57 AM 9:38 PM
Waning Gibbous, 82% visible
METAR EGPH 232220Z AUTO 20004KT 9999 BKN033 16/13 Q1017

10-Day Weather Forecast

×

Almanac

Astronomy

Jul. 23, 2016 Rise Set
Actual Time
Civil Twilight
Nautical Twilight
Astronomical Twilight
Moon
Length of Visible Light
Length of Day
Tomorrow will be .
, % of the Moon is Illuminated

Today's Extremes

Country Highs Country Lows

Community

WunderPhotos

Upload Photos

1,926,946 photos uploaded!

WunderBlog® & News

Nearby

Air Quality

  Air Quality AQ Index Pollutant
Not available.

Snow Depth

Station Depth Elevation

Earthquake Activity

City Distance Mag. Time & Date
Minimum magnitude displayed is 2.5.

Coastal Water Temperatures

Place Temperature

Stations

Nearby Weather Stations

Station Location Temp. Windchill Dew Point Humidity Wind Precip. Elev Updated Type